createdAt,value
2018-10-16T00:01:48.076Z,47.90
2018-10-16T00:04:19.769Z,48.00
2018-10-16T00:06:51.329Z,48.00
2018-10-16T00:09:22.370Z,48.10
2018-10-16T00:12:04.566Z,48.00
2018-10-16T00:14:35.852Z,48.10
2018-10-16T00:17:08.861Z,48.10
2018-10-16T00:19:39.966Z,48.20
2018-10-16T00:22:11.131Z,48.10
2018-10-16T00:24:41.922Z,48.20
2018-10-16T00:27:12.712Z,48.40
2018-10-16T00:29:43.482Z,48.50
2018-10-16T00:32:14.453Z,48.40
2018-10-16T00:34:45.164Z,48.40
2018-10-16T00:37:15.881Z,48.40
2018-10-16T00:39:46.662Z,49.00
2018-10-16T00:42:17.465Z,48.50
2018-10-16T00:44:48.410Z,48.50
2018-10-16T00:47:19.226Z,48.40
2018-10-16T00:49:50.067Z,48.50
2018-10-16T00:52:21.507Z,48.60
2018-10-16T00:54:52.328Z,48.70
2018-10-16T00:57:23.451Z,48.80
2018-10-16T00:59:54.249Z,49.50
2018-10-16T01:02:25.101Z,48.80
2018-10-16T01:04:56.554Z,48.90
2018-10-16T01:07:27.312Z,48.90
2018-10-16T01:09:58.155Z,49.00
2018-10-16T01:12:29.037Z,48.90
2018-10-16T01:14:59.848Z,48.90
2018-10-16T01:17:30.966Z,48.90
2018-10-16T01:20:01.720Z,49.10
2018-10-16T01:22:32.134Z,49.10
2018-10-16T01:25:02.891Z,49.10
2018-10-16T01:27:33.672Z,49.20
2018-10-16T01:30:04.726Z,49.30
2018-10-16T01:32:36.063Z,49.40
2018-10-16T01:35:09.528Z,49.50
2018-10-16T01:37:40.795Z,49.50
2018-10-16T01:40:12.065Z,49.50
2018-10-16T01:42:42.812Z,49.60
2018-10-16T01:45:13.781Z,49.60
2018-10-16T01:47:44.621Z,49.60
2018-10-16T01:50:15.423Z,49.80
2018-10-16T01:52:46.253Z,49.90
2018-10-16T01:55:17.128Z,50.00
2018-10-16T01:57:47.874Z,50.10
2018-10-16T02:00:18.658Z,50.10
2018-10-16T02:02:49.491Z,50.70
2018-10-16T02:05:21.251Z,50.30
2018-10-16T02:07:52.113Z,50.30
2018-10-16T02:10:22.847Z,50.40
2018-10-16T02:12:53.927Z,51.10
2018-10-16T02:15:24.996Z,50.30
2018-10-16T02:17:55.781Z,50.30
2018-10-16T02:20:26.561Z,50.20
2018-10-16T02:22:57.472Z,50.30
2018-10-16T02:25:28.391Z,50.40
2018-10-16T02:27:59.162Z,50.30
2018-10-16T02:30:29.986Z,50.40
2018-10-16T02:33:01.273Z,50.40
2018-10-16T02:35:31.689Z,50.50
2018-10-16T02:38:02.765Z,50.50
2018-10-16T02:40:33.499Z,50.50
2018-10-16T02:43:04.269Z,50.50
2018-10-16T02:45:35.014Z,50.60
2018-10-16T02:48:06.179Z,50.60
2018-10-16T02:50:37.060Z,50.70
2018-10-16T02:53:07.807Z,50.70
2018-10-16T02:55:38.733Z,50.70
2018-10-16T02:58:09.483Z,50.70
2018-10-16T03:00:40.282Z,50.70
2018-10-16T03:03:11.381Z,50.70
2018-10-16T03:05:44.133Z,50.80
2018-10-16T03:08:15.262Z,50.70
2018-10-16T03:10:46.310Z,50.70
2018-10-16T03:13:17.286Z,50.80
2018-10-16T03:15:48.111Z,50.80
2018-10-16T03:18:19.318Z,50.90
2018-10-16T03:20:50.075Z,50.90
2018-10-16T03:23:20.821Z,50.80
2018-10-16T03:25:51.629Z,50.80
2018-10-16T03:28:22.364Z,50.80
2018-10-16T03:30:53.432Z,50.80
2018-10-16T03:33:24.341Z,50.80
2018-10-16T03:35:54.990Z,51.00
2018-10-16T03:38:25.798Z,50.80
2018-10-16T03:40:56.713Z,50.80
2018-10-16T03:43:27.570Z,50.90
2018-10-16T03:45:58.293Z,50.80
2018-10-16T03:48:29.120Z,51.40
2018-10-16T03:50:59.805Z,50.90
2018-10-16T03:53:30.963Z,51.00
2018-10-16T03:56:01.640Z,50.90
2018-10-16T03:58:33.297Z,50.90
2018-10-16T04:01:04.005Z,51.10
2018-10-16T04:03:34.830Z,51.10
2018-10-16T04:06:06.052Z,50.90
2018-10-16T04:08:36.832Z,50.90
2018-10-16T04:11:14.281Z,50.90
2018-10-16T04:13:45.022Z,50.90
2018-10-16T04:16:15.895Z,50.90
2018-10-16T04:18:47.050Z,50.80
2018-10-16T04:21:17.847Z,50.80
2018-10-16T04:23:48.496Z,50.80
2018-10-16T04:26:19.402Z,50.80
2018-10-16T04:28:50.239Z,50.90
2018-10-16T04:31:21.364Z,50.90
2018-10-16T04:33:52.060Z,50.90
2018-10-16T04:36:22.794Z,51.00
2018-10-16T04:38:54.210Z,51.00
2018-10-16T04:41:25.143Z,50.90
2018-10-16T04:43:57.006Z,51.00
2018-10-16T04:46:28.043Z,51.00
2018-10-16T04:48:58.913Z,51.00
2018-10-16T04:51:29.815Z,51.00
2018-10-16T04:54:00.787Z,51.10
2018-10-16T04:56:31.525Z,51.30
2018-10-16T04:59:02.319Z,51.20
2018-10-16T05:01:33.024Z,51.30
2018-10-16T05:04:03.867Z,51.50
2018-10-16T05:06:34.377Z,51.60
2018-10-16T05:09:07.910Z,51.60
2018-10-16T05:11:43.932Z,51.60
2018-10-16T05:14:15.313Z,51.70
2018-10-16T05:16:46.216Z,51.80
2018-10-16T05:19:17.664Z,51.80
2018-10-16T05:21:48.454Z,51.80
2018-10-16T05:24:19.660Z,51.70
2018-10-16T05:26:50.458Z,51.70
2018-10-16T05:29:21.423Z,51.60
2018-10-16T05:31:52.573Z,51.60
2018-10-16T05:34:23.842Z,51.60
2018-10-16T05:36:54.692Z,51.50
2018-10-16T05:39:25.512Z,51.50
2018-10-16T05:41:56.481Z,51.50
2018-10-16T05:44:27.601Z,51.50
2018-10-16T05:46:58.507Z,51.30
2018-10-16T05:49:29.004Z,51.50
2018-10-16T05:51:59.920Z,51.60
2018-10-16T05:54:31.217Z,51.50
2018-10-16T05:57:02.187Z,51.60
2018-10-16T05:59:33.488Z,51.60
2018-10-16T06:02:04.796Z,51.60
2018-10-16T06:04:35.658Z,51.80
2018-10-16T06:07:07.240Z,51.80
2018-10-16T06:09:38.202Z,51.80
2018-10-16T06:12:09.146Z,51.80
2018-10-16T06:14:40.604Z,51.80
2018-10-16T06:17:11.336Z,51.80
2018-10-16T06:19:42.643Z,51.70
2018-10-16T06:22:13.376Z,51.80
2018-10-16T06:24:44.121Z,51.70
2018-10-16T06:27:15.263Z,51.80
2018-10-16T06:29:46.029Z,51.80
2018-10-16T06:32:17.038Z,51.80
2018-10-16T06:34:47.771Z,51.80
2018-10-16T06:37:18.701Z,51.90
2018-10-16T06:39:56.255Z,51.90
2018-10-16T06:42:27.381Z,51.90
2018-10-16T06:44:58.419Z,51.90
2018-10-16T06:49:41.426Z,51.60
2018-10-16T06:52:12.315Z,52.00
2018-10-16T06:54:43.368Z,52.10
2018-10-16T06:57:14.285Z,52.30
2018-10-16T06:59:45.713Z,52.30
2018-10-16T07:02:16.467Z,52.40
2018-10-16T07:04:47.412Z,52.50
2018-10-16T07:07:19.286Z,52.50
2018-10-16T07:09:50.417Z,52.40
2018-10-16T07:12:21.829Z,52.30
2018-10-16T07:14:52.675Z,52.40
2018-10-16T07:17:23.612Z,52.30
2018-10-16T07:19:54.647Z,52.40
2018-10-16T07:22:25.534Z,52.20
2018-10-16T07:24:56.510Z,52.10
2018-10-16T07:27:27.032Z,52.00
2018-10-16T07:29:57.896Z,51.90
2018-10-16T07:32:29.088Z,51.80
2018-10-16T07:35:00.618Z,51.80
2018-10-16T07:37:31.846Z,51.90
2018-10-16T07:40:02.829Z,51.80
2018-10-16T07:42:33.907Z,51.80
2018-10-16T07:45:05.358Z,52.00
2018-10-16T07:47:36.954Z,52.00
2018-10-16T07:50:11.838Z,52.00
2018-10-16T07:52:42.613Z,52.00
2018-10-16T07:55:14.343Z,52.20
2018-10-16T07:57:45.155Z,52.30
2018-10-16T08:00:15.968Z,52.80
2018-10-16T08:02:46.856Z,52.20
2018-10-16T08:05:17.864Z,52.30
2018-10-16T08:07:51.924Z,52.40
2018-10-16T08:10:22.856Z,52.50
2018-10-16T08:12:53.908Z,52.50
2018-10-16T08:15:25.192Z,52.40
2018-10-16T08:17:56.214Z,52.20
2018-10-16T08:20:27.436Z,51.90
2018-10-16T08:22:58.384Z,51.90
2018-10-16T08:25:29.622Z,51.90
2018-10-16T08:28:01.615Z,51.90
2018-10-16T08:30:33.111Z,51.90
2018-10-16T08:33:04.218Z,51.80
2018-10-16T08:35:35.215Z,51.80
2018-10-16T08:39:16.959Z,51.40
2018-10-16T08:42:03.569Z,51.50
2018-10-16T08:45:25.591Z,50.50
2018-10-16T08:48:13.141Z,51.10
2018-10-16T08:51:00.854Z,51.30
2018-10-16T08:53:31.476Z,51.10
2018-10-16T08:56:02.486Z,50.90
2018-10-16T08:58:33.442Z,50.70
2018-10-16T09:01:04.551Z,50.80
2018-10-16T09:03:35.799Z,50.90
2018-10-16T09:06:07.566Z,51.00
2018-10-16T09:08:38.519Z,51.00
2018-10-16T09:11:09.596Z,51.60
2018-10-16T09:13:40.320Z,50.50
2018-10-16T09:16:11.507Z,50.60
2018-10-16T09:18:42.770Z,50.70
2018-10-16T09:21:13.984Z,50.50
2018-10-16T09:23:45.482Z,50.20
2018-10-16T09:26:16.394Z,50.20
2018-10-16T09:28:47.513Z,50.40
2018-10-16T09:31:18.849Z,51.00
2018-10-16T09:33:49.798Z,50.30
2018-10-16T09:36:21.354Z,50.30
2018-10-16T09:38:53.496Z,50.20
2018-10-16T09:41:26.210Z,50.00
2018-10-16T09:43:57.866Z,49.20
2018-10-16T09:46:29.715Z,48.80
2018-10-16T09:49:01.199Z,48.20
2018-10-16T09:51:32.883Z,47.70
2018-10-16T09:54:04.533Z,46.70
2018-10-16T09:56:36.188Z,46.50
2018-10-16T09:59:08.272Z,45.70
2018-10-16T10:01:44.645Z,45.20
2018-10-16T10:04:16.340Z,44.50
2018-10-16T10:06:47.727Z,44.20
2018-10-16T10:09:19.133Z,43.50
2018-10-16T10:11:50.490Z,42.40
2018-10-16T10:14:22.035Z,41.90
2018-10-16T10:16:54.316Z,41.20
2018-10-16T10:19:25.672Z,39.60
2018-10-16T10:21:57.137Z,39.00
2018-10-16T10:24:28.728Z,38.30
2018-10-16T10:27:00.842Z,38.30
2018-10-16T10:29:32.292Z,37.20
2018-10-16T10:32:04.114Z,37.00
2018-10-16T10:34:35.703Z,36.60
2018-10-16T10:37:07.212Z,36.30
2018-10-16T10:39:39.233Z,36.00
2018-10-16T10:42:10.966Z,35.40
2018-10-16T10:44:42.469Z,35.30
2018-10-16T10:47:14.054Z,35.30
2018-10-16T10:49:45.595Z,35.20
2018-10-16T10:52:17.312Z,35.10
2018-10-16T10:54:48.839Z,34.50
2018-10-16T10:57:20.476Z,33.70
2018-10-16T10:59:51.886Z,33.20
2018-10-16T11:02:23.207Z,32.20
2018-10-16T11:04:54.754Z,31.30
2018-10-16T11:07:26.469Z,30.80
2018-10-16T11:09:57.475Z,30.40
2018-10-16T11:12:34.657Z,30.40
2018-10-16T11:15:08.020Z,30.20
2018-10-16T11:17:40.302Z,30.20
2018-10-16T11:20:13.290Z,30.10
2018-10-16T11:22:44.714Z,29.70
2018-10-16T11:25:16.184Z,29.20
2018-10-16T11:27:47.591Z,29.40
2018-10-16T11:30:19.264Z,29.20
2018-10-16T11:32:51.393Z,28.90
2018-10-16T11:35:23.037Z,28.50
2018-10-16T11:37:54.479Z,28.00
2018-10-16T11:40:25.886Z,28.00
2018-10-16T11:42:57.469Z,28.50
2018-10-16T11:45:29.091Z,27.80
2018-10-16T11:48:00.407Z,27.30
2018-10-16T11:50:31.822Z,27.10
2018-10-16T11:53:03.242Z,26.70
2018-10-16T11:55:34.359Z,26.60
2018-10-16T11:58:05.901Z,26.20
2018-10-16T12:00:37.804Z,26.10
2018-10-16T12:03:09.233Z,26.30
2018-10-16T12:05:40.558Z,26.10
2018-10-16T12:08:12.113Z,25.90
2018-10-16T12:10:43.817Z,25.50
2018-10-16T12:13:15.512Z,25.00
2018-10-16T12:15:46.813Z,25.00
2018-10-16T12:18:23.530Z,25.10
2018-10-16T12:20:59.506Z,25.00
2018-10-16T12:23:31.247Z,25.20
2018-10-16T12:26:02.429Z,24.90
2018-10-16T12:28:33.527Z,24.90
2018-10-16T12:31:06.171Z,24.70
2018-10-16T12:33:38.059Z,24.70
2018-10-16T12:36:09.136Z,24.40
2018-10-16T12:38:40.611Z,24.00
2018-10-16T12:41:11.998Z,24.20
2018-10-16T12:43:43.268Z,24.20
2018-10-16T12:46:14.370Z,23.90
2018-10-16T12:48:45.639Z,24.10
2018-10-16T12:51:16.849Z,23.90
2018-10-16T12:53:48.350Z,23.50
2018-10-16T12:56:19.863Z,23.20
2018-10-16T12:58:51.398Z,22.90
2018-10-16T13:01:22.957Z,22.60
2018-10-16T13:03:54.464Z,22.60
2018-10-16T13:06:25.783Z,22.80
2018-10-16T13:08:57.492Z,23.00
2018-10-16T13:11:29.170Z,23.10
2018-10-16T13:14:00.536Z,23.30
2018-10-16T13:16:32.667Z,23.50
2018-10-16T13:19:04.731Z,23.80
2018-10-16T13:21:39.716Z,23.90
2018-10-16T13:24:14.137Z,24.40
2018-10-16T13:26:45.735Z,24.70
2018-10-16T13:29:17.336Z,24.90
2018-10-16T13:31:48.934Z,25.00
2018-10-16T13:34:20.236Z,25.30
2018-10-16T13:36:51.612Z,25.50
2018-10-16T13:39:23.344Z,25.60
2018-10-16T13:41:54.798Z,25.60
2018-10-16T13:44:26.599Z,25.40
2018-10-16T13:46:58.244Z,26.20
2018-10-16T13:49:29.976Z,25.80
2018-10-16T13:52:01.440Z,26.00
2018-10-16T13:54:32.962Z,26.10
2018-10-16T13:57:04.730Z,26.60
2018-10-16T13:59:36.336Z,26.80
2018-10-16T14:02:08.194Z,26.20
2018-10-16T14:04:39.778Z,26.40
2018-10-16T14:07:11.877Z,26.60
2018-10-16T14:09:44.404Z,26.60
2018-10-16T14:12:15.893Z,26.60
2018-10-16T14:14:47.221Z,26.80
2018-10-16T14:17:18.965Z,26.80
2018-10-16T14:19:50.490Z,27.00
2018-10-16T14:22:22.131Z,27.10
2018-10-16T14:24:53.633Z,27.00
2018-10-16T14:27:25.185Z,26.60
2018-10-16T14:29:56.584Z,27.10
2018-10-16T14:32:28.135Z,27.30
2018-10-16T14:34:59.770Z,27.50
2018-10-16T14:37:31.124Z,27.60
2018-10-16T14:40:02.532Z,27.70
2018-10-16T14:42:34.400Z,27.80
2018-10-16T14:45:07.083Z,27.70
2018-10-16T14:47:39.408Z,28.00
2018-10-16T14:50:12.807Z,28.10
2018-10-16T14:52:44.650Z,28.30
2018-10-16T14:55:16.148Z,28.40
2018-10-16T14:57:48.263Z,28.50
2018-10-16T15:00:20.577Z,28.70
2018-10-16T15:02:51.901Z,28.80
2018-10-16T15:05:23.299Z,29.00
2018-10-16T15:07:55.213Z,29.10
2018-10-16T15:10:26.751Z,29.00
2018-10-16T15:12:58.369Z,29.10
2018-10-16T15:15:29.806Z,29.10
2018-10-16T15:18:01.166Z,28.90
2018-10-16T15:20:33.227Z,28.80
2018-10-16T15:23:04.749Z,28.90
2018-10-16T15:25:36.945Z,29.10
2018-10-16T15:28:08.545Z,29.30
2018-10-16T15:30:40.121Z,29.20
2018-10-16T15:33:11.879Z,29.20
2018-10-16T15:35:43.574Z,29.20
2018-10-16T15:38:15.151Z,29.30
2018-10-16T15:40:46.507Z,29.50
2018-10-16T15:43:17.809Z,29.60
2018-10-16T15:45:48.877Z,29.60
2018-10-16T15:48:20.258Z,29.70
2018-10-16T15:50:52.169Z,29.80
2018-10-16T15:53:23.911Z,29.90
2018-10-16T15:55:55.152Z,30.00
2018-10-16T15:58:26.474Z,30.10
2018-10-16T16:00:57.419Z,30.30
2018-10-16T16:03:28.213Z,30.30
2018-10-16T16:05:59.221Z,30.40
2018-10-16T16:08:30.623Z,30.50
2018-10-16T16:11:01.456Z,30.70
2018-10-16T16:13:32.264Z,30.80
2018-10-16T16:16:03.512Z,31.00
2018-10-16T16:18:34.399Z,31.20
2018-10-16T16:21:05.904Z,31.30
2018-10-16T16:23:36.947Z,31.50
2018-10-16T16:26:08.124Z,31.60
2018-10-16T16:28:39.353Z,32.00
2018-10-16T16:31:10.671Z,32.20
2018-10-16T16:33:41.979Z,32.60
2018-10-16T16:36:12.883Z,32.90
2018-10-16T16:38:43.955Z,33.20
2018-10-16T16:41:14.797Z,33.40
2018-10-16T16:43:46.157Z,33.90
2018-10-16T16:46:17.233Z,34.20
2018-10-16T16:48:48.055Z,34.90
2018-10-16T16:51:19.131Z,35.10
2018-10-16T16:53:50.100Z,35.10
2018-10-16T16:56:20.990Z,35.60
2018-10-16T16:58:51.945Z,36.00
2018-10-16T17:01:23.686Z,36.10
2018-10-16T17:03:55.128Z,36.50
2018-10-16T17:06:26.459Z,37.00
2018-10-16T17:08:57.436Z,37.00
2018-10-16T17:11:28.516Z,37.30
2018-10-16T17:13:59.525Z,37.30
2018-10-16T17:16:30.739Z,37.30
2018-10-16T17:19:02.079Z,37.90
2018-10-16T17:21:33.153Z,37.50
2018-10-16T17:24:04.449Z,38.40
2018-10-16T17:26:35.730Z,37.80
2018-10-16T17:29:08.019Z,38.30
2018-10-16T17:31:39.006Z,38.10
2018-10-16T17:34:10.282Z,38.20
2018-10-16T17:36:41.859Z,38.40
2018-10-16T17:39:12.920Z,38.40
2018-10-16T17:41:44.149Z,38.50
2018-10-16T17:44:15.005Z,38.80
2018-10-16T17:46:45.839Z,38.80
2018-10-16T17:49:16.723Z,38.80
2018-10-16T17:51:47.671Z,39.00
2018-10-16T17:54:18.833Z,39.10
2018-10-16T17:56:50.730Z,39.30
2018-10-16T17:59:22.054Z,39.40
2018-10-16T18:01:53.270Z,39.50
2018-10-16T18:04:24.379Z,39.70
2018-10-16T18:06:55.697Z,40.10
2018-10-16T18:09:26.662Z,39.70
2018-10-16T18:11:57.845Z,39.80
2018-10-16T18:14:29.021Z,40.00
2018-10-16T18:17:00.066Z,40.10
2018-10-16T18:19:31.201Z,40.10
2018-10-16T18:22:02.173Z,40.20
2018-10-16T18:24:33.086Z,40.20
2018-10-16T18:27:04.320Z,40.40
2018-10-16T18:29:35.786Z,40.50
2018-10-16T18:32:08.027Z,40.90
2018-10-16T18:34:39.036Z,40.80
2018-10-16T18:37:09.995Z,41.70
2018-10-16T18:39:41.372Z,41.30
2018-10-16T18:42:12.262Z,41.30
2018-10-16T18:44:44.477Z,41.50
2018-10-16T18:47:15.301Z,40.20
2018-10-16T18:49:46.386Z,41.50
2018-10-16T18:52:23.530Z,41.60
2018-10-16T18:54:55.271Z,41.70
2018-10-16T18:57:26.051Z,41.80
2018-10-16T18:59:57.100Z,41.80
2018-10-16T19:02:27.894Z,42.20
2018-10-16T19:04:58.801Z,42.40
2018-10-16T19:07:29.558Z,42.60
2018-10-16T19:10:00.452Z,42.70
2018-10-16T19:12:31.273Z,42.80
2018-10-16T19:15:02.247Z,43.00
2018-10-16T19:17:33.350Z,43.80
2018-10-16T19:20:04.579Z,43.20
2018-10-16T19:22:35.610Z,43.30
2018-10-16T19:25:08.203Z,43.50
2018-10-16T19:27:39.801Z,43.60
2018-10-16T19:30:11.782Z,43.80
2018-10-16T19:32:42.649Z,43.80
2018-10-16T19:35:14.809Z,43.90
2018-10-16T19:37:45.689Z,43.90
2018-10-16T19:40:16.738Z,44.20
2018-10-16T19:42:47.646Z,44.40
2018-10-16T19:45:18.780Z,44.30
2018-10-16T19:47:49.772Z,44.60
2018-10-16T19:50:21.124Z,44.40
2018-10-16T19:52:51.965Z,44.50
2018-10-16T19:55:23.145Z,44.70
2018-10-16T19:57:54.045Z,44.70
2018-10-16T20:00:25.030Z,44.80
2018-10-16T20:02:56.101Z,44.90
2018-10-16T20:05:27.090Z,45.10
2018-10-16T20:07:58.117Z,45.20
2018-10-16T20:10:29.387Z,45.00
2018-10-16T20:13:00.352Z,45.20
2018-10-16T20:15:31.305Z,45.20
2018-10-16T20:18:02.306Z,45.30
2018-10-16T20:20:33.206Z,45.30
2018-10-16T20:23:04.443Z,45.40
2018-10-16T20:25:35.403Z,45.70
2018-10-16T20:28:06.697Z,46.20
2018-10-16T20:30:37.544Z,45.70
2018-10-16T20:33:08.449Z,46.00
2018-10-16T20:35:39.819Z,46.10
2018-10-16T20:38:10.731Z,46.20
2018-10-16T20:40:42.874Z,46.20
2018-10-16T20:43:13.906Z,46.30
2018-10-16T20:45:44.923Z,46.40
2018-10-16T20:48:15.448Z,46.40
2018-10-16T20:50:46.214Z,46.50
2018-10-16T20:53:17.152Z,46.60
2018-10-16T20:55:47.961Z,46.50
2018-10-16T20:58:18.828Z,46.50
2018-10-16T21:00:50.403Z,46.40
2018-10-16T21:03:21.806Z,46.50
2018-10-16T21:05:52.551Z,46.60
2018-10-16T21:08:23.450Z,46.60
2018-10-16T21:10:54.537Z,46.80
2018-10-16T21:13:25.305Z,46.70
2018-10-16T21:15:56.110Z,46.80
2018-10-16T21:18:27.058Z,46.90
2018-10-16T21:20:58.114Z,46.90
2018-10-16T21:23:28.963Z,46.70
2018-10-16T21:26:00.035Z,46.90
2018-10-16T21:28:31.177Z,47.00
2018-10-16T21:31:02.036Z,47.00
2018-10-16T21:33:33.053Z,47.10
2018-10-16T21:36:03.914Z,47.30
2018-10-16T21:38:34.907Z,47.30
2018-10-16T21:41:05.824Z,47.40
2018-10-16T21:43:36.853Z,48.20
2018-10-16T21:46:08.152Z,47.50
2018-10-16T21:48:39.022Z,47.50
2018-10-16T21:51:09.976Z,47.50
2018-10-16T21:53:40.813Z,47.50
2018-10-16T21:56:11.716Z,47.50
2018-10-16T21:58:42.730Z,47.60
2018-10-16T22:01:13.712Z,47.60
2018-10-16T22:03:44.685Z,47.70
2018-10-16T22:06:18.817Z,47.60
2018-10-16T22:08:49.823Z,47.60
2018-10-16T22:11:20.705Z,47.60
2018-10-16T22:13:51.349Z,47.70
2018-10-16T22:16:22.317Z,47.50
2018-10-16T22:18:53.126Z,47.60
2018-10-16T22:21:24.201Z,47.60
2018-10-16T22:23:55.393Z,47.80
2018-10-16T22:26:26.206Z,47.60
2018-10-16T22:28:57.155Z,47.60
2018-10-16T22:31:28.084Z,47.60
2018-10-16T22:33:58.934Z,47.60
2018-10-16T22:36:29.788Z,47.60
2018-10-16T22:39:00.622Z,47.60
2018-10-16T22:41:31.472Z,47.60
2018-10-16T22:44:02.195Z,47.60
2018-10-16T22:46:33.361Z,47.50
2018-10-16T22:49:04.884Z,47.60
2018-10-16T22:51:36.357Z,47.50
2018-10-16T22:54:07.201Z,47.40
2018-10-16T22:56:38.148Z,47.40
2018-10-16T22:59:09.015Z,47.60
2018-10-16T23:01:40.371Z,47.50
2018-10-16T23:04:11.306Z,47.50
2018-10-16T23:06:42.265Z,47.50
2018-10-16T23:09:13.229Z,47.60
2018-10-16T23:11:44.066Z,47.60
2018-10-16T23:14:15.062Z,47.60
2018-10-16T23:16:45.950Z,47.70
2018-10-16T23:19:16.901Z,47.60
2018-10-16T23:21:47.776Z,47.60
2018-10-16T23:24:18.658Z,47.70
2018-10-16T23:26:49.921Z,47.80
2018-10-16T23:29:20.746Z,47.80
2018-10-16T23:31:51.663Z,47.70
2018-10-16T23:34:22.508Z,48.00
2018-10-16T23:36:53.413Z,47.70
2018-10-16T23:39:24.368Z,47.80
2018-10-16T23:41:55.218Z,47.90
2018-10-16T23:44:26.163Z,47.90
2018-10-16T23:46:57.101Z,47.90
2018-10-16T23:49:28.082Z,47.90
2018-10-16T23:51:58.944Z,47.80
2018-10-16T23:54:29.842Z,48.50
2018-10-16T23:57:00.243Z,47.90
2018-10-16T23:59:32.188Z,47.90
